Time;durP1;ratioP1;P1;durP2;ratioP2;P2;SDS_P1;SDS_P2;PMS_P1;PMS_P2;Temp;Humidity;BMP_temperature;BMP_pressure;BME280_temperature;BME280_humidity;BME280_pressure;Samples;Min_cycle;Max_cycle;Signal;HPM_P1;HPM_P2
2022/03/08 00:00:57;;;;;;;1.17;0.47;;;1.30;99.90;;;;;;5020605;28;20317;-84
2022/03/08 00:03:23;;;;;;;1.67;0.53;;;1.30;99.90;;;;;;5020948;28;20222;-84
2022/03/08 00:05:48;;;;;;;0.20;0.20;;;1.30;99.90;;;;;;5019850;28;20194;-84
2022/03/08 00:08:14;;;;;;;2.00;0.73;;;1.20;99.90;;;;;;5021121;28;20197;-84
2022/03/08 00:10:40;;;;;;;0.63;0.63;;;1.20;99.90;;;;;;5025487;28;20296;-85
2022/03/08 00:13:05;;;;;;;1.20;0.97;;;1.20;99.90;;;;;;5025164;28;20197;-83
2022/03/08 00:15:31;;;;;;;1.90;1.10;;;1.20;99.90;;;;;;5024040;28;20194;-84
2022/03/08 00:17:56;;;;;;;0.37;0.33;;;1.20;99.90;;;;;;5024628;28;20569;-84
2022/03/08 00:20:23;;;;;;;0.33;0.33;;;1.20;99.90;;;;;;5016076;28;20229;-84
2022/03/08 00:22:49;;;;;;;0.50;0.50;;;1.20;99.90;;;;;;5022943;28;20232;-84
2022/03/08 00:25:16;;;;;;;0.30;0.30;;;1.30;99.90;;;;;;5025178;28;20203;-84
2022/03/08 00:27:45;;;;;;;0.53;0.50;;;1.20;99.90;;;;;;5022711;28;20196;-84
2022/03/08 00:30:13;;;;;;;1.60;0.93;;;1.20;99.90;;;;;;5022818;28;20215;-84
2022/03/08 00:32:38;;;;;;;1.33;0.97;;;1.20;99.90;;;;;;5023701;28;20192;-84
2022/03/08 00:35:06;;;;;;;0.40;0.40;;;1.20;99.90;;;;;;5021797;28;20250;-84
2022/03/08 00:37:31;;;;;;;0.40;0.40;;;1.30;99.90;;;;;;5038764;28;20217;-84
2022/03/08 00:39:57;;;;;;;1.23;1.13;;;1.20;99.90;;;;;;5021848;28;20251;-85
2022/03/08 00:42:23;;;;;;;0.20;0.20;;;1.20;99.90;;;;;;5023306;28;20245;-84
2022/03/08 00:44:49;;;;;;;1.47;1.37;;;1.20;99.90;;;;;;5023806;28;20188;-84
2022/03/08 00:47:15;;;;;;;0.50;0.50;;;1.10;99.90;;;;;;5022109;28;20247;-84
2022/03/08 00:49:41;;;;;;;0.40;0.40;;;1.10;99.90;;;;;;5020181;28;20202;-84
2022/03/08 00:52:08;;;;;;;0.40;0.40;;;1.10;99.90;;;;;;5028146;28;20291;-85
2022/03/08 00:54:33;;;;;;;0.70;0.70;;;1.10;99.90;;;;;;5022833;28;20240;-84
2022/03/08 00:56:59;;;;;;;0.30;0.30;;;1.10;99.90;;;;;;5024665;28;20206;-84
2022/03/08 00:59:25;;;;;;;1.70;1.07;;;1.00;99.90;;;;;;5025832;28;20213;-84
2022/03/08 01:01:50;;;;;;;0.30;0.30;;;1.00;99.90;;;;;;5026598;28;20201;-83
2022/03/08 01:04:16;;;;;;;0.10;0.10;;;1.00;99.90;;;;;;5028889;28;20647;-84
2022/03/08 01:06:42;;;;;;;0.20;0.20;;;0.90;99.90;;;;;;5023059;28;20201;-84
2022/03/08 01:09:09;;;;;;;0.20;0.20;;;0.90;99.90;;;;;;5027945;28;20684;-84
2022/03/08 01:11:36;;;;;;;0.53;0.40;;;0.90;99.90;;;;;;5028832;28;21066;-84
2022/03/08 01:14:03;;;;;;;0.53;0.50;;;0.90;99.90;;;;;;5021130;28;20251;-84
2022/03/08 01:16:29;;;;;;;0.63;0.63;;;0.90;99.90;;;;;;5025957;28;20232;-84
2022/03/08 01:18:55;;;;;;;0.50;0.50;;;0.80;99.90;;;;;;5021309;28;20952;-84
2022/03/08 01:21:20;;;;;;;0.50;0.50;;;0.80;99.90;;;;;;5024476;28;20705;-85
2022/03/08 01:23:46;;;;;;;0.70;0.70;;;0.80;99.90;;;;;;5026887;28;20285;-83
2022/03/08 01:26:12;;;;;;;0.53;0.53;;;0.80;99.90;;;;;;5027892;28;20203;-84
2022/03/08 01:28:38;;;;;;;0.63;0.63;;;0.80;99.90;;;;;;5023939;28;20245;-83
2022/03/08 01:31:03;;;;;;;0.30;0.30;;;0.80;99.90;;;;;;5025751;28;20209;-85
2022/03/08 01:33:29;;;;;;;1.93;0.80;;;0.70;99.90;;;;;;5021529;28;20290;-83
2022/03/08 01:35:55;;;;;;;0.40;0.17;;;0.70;99.90;;;;;;5025768;28;20815;-84
2022/03/08 01:38:21;;;;;;;0.67;0.67;;;0.60;99.90;;;;;;5021819;28;20226;-84
2022/03/08 01:40:47;;;;;;;0.50;0.50;;;0.70;99.90;;;;;;5022962;28;20250;-84
2022/03/08 01:43:13;;;;;;;0.20;0.20;;;0.70;99.90;;;;;;5027980;28;20226;-84
2022/03/08 01:45:39;;;;;;;0.53;0.53;;;0.60;99.90;;;;;;5028580;28;20191;-83
2022/03/08 01:48:04;;;;;;;0.20;0.20;;;0.60;99.90;;;;;;5023548;28;20192;-84
2022/03/08 01:50:30;;;;;;;0.83;0.83;;;0.70;99.90;;;;;;5026059;28;20237;-84
2022/03/08 01:52:57;;;;;;;0.70;0.70;;;0.60;99.90;;;;;;5026591;28;20266;-84
2022/03/08 01:55:25;;;;;;;0.30;0.30;;;0.60;99.90;;;;;;5022695;28;20222;-85
2022/03/08 01:57:52;;;;;;;0.30;0.30;;;0.60;99.90;;;;;;5020948;28;20192;-84
2022/03/08 02:00:25;;;;;;;0.27;0.27;;;0.60;99.90;;;;;;5025573;28;20211;-84
2022/03/08 02:02:51;;;;;;;0.37;0.17;;;0.50;99.90;;;;;;5043122;28;20289;-84
2022/03/08 02:05:17;;;;;;;0.40;0.40;;;0.50;99.90;;;;;;5026863;28;20303;-84
2022/03/08 02:07:43;;;;;;;0.60;0.40;;;0.50;99.90;;;;;;5026706;28;20195;-84
2022/03/08 02:10:09;;;;;;;0.63;0.40;;;0.50;99.90;;;;;;5023810;28;20204;-84
2022/03/08 02:12:35;;;;;;;0.10;0.10;;;0.50;99.90;;;;;;5025606;28;20196;-84
2022/03/08 02:15:19;;;;;;;0.37;0.30;;;0.40;99.90;;;;;;5020511;28;20277;-84
2022/03/08 02:17:45;;;;;;;0.30;0.30;;;0.40;99.90;;;;;;5026146;28;20187;-84
2022/03/08 02:20:13;;;;;;;0.77;0.77;;;0.40;99.90;;;;;;5028207;28;20210;-83
2022/03/08 02:22:43;;;;;;;0.40;0.40;;;0.30;99.90;;;;;;5023627;28;20549;-84
2022/03/08 02:25:09;;;;;;;0.30;0.30;;;0.30;99.90;;;;;;5022092;28;20207;-84
2022/03/08 02:27:42;;;;;;;0.63;0.63;;;0.30;99.90;;;;;;5028448;28;20637;-83
2022/03/08 02:30:13;;;;;;;0.20;0.20;;;0.30;99.90;;;;;;5022839;28;20245;-84
2022/03/08 02:32:39;;;;;;;0.50;0.50;;;0.30;99.90;;;;;;5027046;28;20271;-84
2022/03/08 02:35:10;;;;;;;0.20;0.20;;;0.30;99.90;;;;;;5026274;28;20523;-84
2022/03/08 02:37:44;;;;;;;0.50;0.50;;;0.30;99.90;;;;;;5026422;28;20190;-86
2022/03/08 02:40:12;;;;;;;0.67;0.67;;;0.20;99.90;;;;;;5026230;28;20215;-83
2022/03/08 02:42:37;;;;;;;0.30;0.30;;;0.20;99.90;;;;;;5023299;28;20243;-83
2022/03/08 02:45:05;;;;;;;0.40;0.30;;;0.20;99.90;;;;;;5027514;28;20648;-84
2022/03/08 02:47:31;;;;;;;0.10;0.10;;;0.10;99.90;;;;;;5024939;28;20195;-83
2022/03/08 02:49:56;;;;;;;0.20;0.20;;;0.10;99.90;;;;;;5022000;28;20208;-84
2022/03/08 02:52:22;;;;;;;0.23;0.23;;;0.10;99.90;;;;;;5023789;28;20653;-85
2022/03/08 02:54:48;;;;;;;0.63;0.63;;;0.10;99.90;;;;;;5021557;28;21701;-84
2022/03/08 02:57:14;;;;;;;0.43;0.43;;;0.10;99.90;;;;;;5021745;28;20263;-84
2022/03/08 02:59:39;;;;;;;0.60;0.60;;;0.10;99.90;;;;;;5026326;28;20211;-84
2022/03/08 03:02:05;;;;;;;0.77;0.77;;;0.10;99.90;;;;;;5023332;28;20189;-84
2022/03/08 03:04:31;;;;;;;0.27;0.27;;;0.10;99.90;;;;;;5020550;28;20227;-84
2022/03/08 03:06:56;;;;;;;0.33;0.33;;;0.00;99.90;;;;;;5025637;28;20188;-84
2022/03/08 03:09:22;;;;;;;0.43;0.43;;;0.00;99.90;;;;;;5023506;28;20659;-84
2022/03/08 03:11:47;;;;;;;0.57;0.57;;;0.10;99.90;;;;;;5023951;28;20656;-84
2022/03/08 03:14:13;;;;;;;0.37;0.37;;;0.00;99.90;;;;;;5020103;28;20194;-84
2022/03/08 03:16:39;;;;;;;0.20;0.20;;;0.00;99.90;;;;;;5025545;28;20690;-84
2022/03/08 03:19:04;;;;;;;0.67;0.67;;;0.00;99.90;;;;;;5021436;28;20691;-83
2022/03/08 03:21:30;;;;;;;0.10;0.10;;;0.00;99.90;;;;;;5019708;28;20279;-83
2022/03/08 03:23:55;;;;;;;4.73;0.63;;;0.00;99.90;;;;;;5024253;28;20275;-83
2022/03/08 03:26:21;;;;;;;1.00;0.43;;;0.00;99.90;;;;;;5020042;28;20642;-83
2022/03/08 03:28:47;;;;;;;0.30;0.30;;;0.00;99.90;;;;;;5024736;28;20186;-83
2022/03/08 03:31:13;;;;;;;0.90;0.50;;;0.00;99.90;;;;;;5041659;28;20674;-84
2022/03/08 03:33:38;;;;;;;1.07;0.50;;;0.00;99.90;;;;;;5019719;28;20190;-83
2022/03/08 03:36:04;;;;;;;0.83;0.67;;;0.00;99.90;;;;;;5023914;28;20199;-84
2022/03/08 03:38:29;;;;;;;0.20;0.20;;;0.00;99.90;;;;;;5021801;28;20191;-84
2022/03/08 03:40:55;;;;;;;0.50;0.50;;;0.10;99.90;;;;;;5020390;28;20288;-84
2022/03/08 03:43:21;;;;;;;0.80;0.50;;;0.10;99.90;;;;;;5026387;28;20222;-84
2022/03/08 03:45:46;;;;;;;0.53;0.43;;;0.10;99.90;;;;;;5024943;28;20761;-84
2022/03/08 03:48:12;;;;;;;0.30;0.30;;;0.10;99.90;;;;;;5018923;28;20187;-84
2022/03/08 03:50:37;;;;;;;0.63;0.63;;;0.10;99.90;;;;;;5024956;28;20784;-84
2022/03/08 03:53:03;;;;;;;0.40;0.40;;;0.10;99.90;;;;;;5021580;28;20245;-84
2022/03/08 03:55:29;;;;;;;0.30;0.30;;;0.10;99.90;;;;;;5023559;28;20731;-84
2022/03/08 03:57:54;;;;;;;0.37;0.37;;;0.00;99.90;;;;;;5024035;28;20194;-84
2022/03/08 04:00:20;;;;;;;0.30;0.30;;;0.10;99.90;;;;;;5022342;28;20633;-84
2022/03/08 04:02:46;;;;;;;0.30;0.30;;;0.20;99.90;;;;;;5020968;28;20238;-85
2022/03/08 04:05:12;;;;;;;0.73;0.40;;;0.20;99.90;;;;;;5023541;28;20261;-83
2022/03/08 04:07:38;;;;;;;0.23;0.23;;;0.20;99.90;;;;;;5024548;28;20575;-84
2022/03/08 04:10:06;;;;;;;0.47;0.47;;;0.20;99.90;;;;;;5020705;28;20221;-83
2022/03/08 04:12:31;;;;;;;0.20;0.20;;;0.20;99.90;;;;;;5025033;28;20197;-84
2022/03/08 04:14:57;;;;;;;0.37;0.37;;;0.20;99.90;;;;;;5016377;28;20755;-84
2022/03/08 04:17:22;;;;;;;0.30;0.30;;;0.20;99.90;;;;;;5017565;28;20235;-84
2022/03/08 04:19:48;;;;;;;0.40;0.20;;;0.20;99.90;;;;;;5020816;28;20206;-83
2022/03/08 04:22:13;;;;;;;0.10;0.10;;;0.20;99.90;;;;;;5025983;28;21117;-84
2022/03/08 04:24:39;;;;;;;0.43;0.43;;;0.20;99.90;;;;;;5024611;28;20237;-85
2022/03/08 04:27:05;;;;;;;0.40;0.40;;;0.10;99.90;;;;;;5019982;28;20193;-83
2022/03/08 04:29:31;;;;;;;0.30;0.30;;;0.20;99.90;;;;;;5025172;28;20260;-86
2022/03/08 04:31:56;;;;;;;1.70;0.63;;;0.20;99.90;;;;;;5023871;28;21115;-83
2022/03/08 04:34:22;;;;;;;0.47;0.30;;;0.10;99.90;;;;;;5022868;28;20187;-86
2022/03/08 04:36:47;;;;;;;0.10;0.10;;;0.20;99.90;;;;;;5025511;28;20198;-84
2022/03/08 04:39:13;;;;;;;0.47;0.47;;;0.20;99.90;;;;;;5026960;28;20202;-83
2022/03/08 04:41:39;;;;;;;0.47;0.47;;;0.20;99.90;;;;;;5021076;28;21179;-84
2022/03/08 04:44:05;;;;;;;0.77;0.50;;;0.20;99.90;;;;;;5023746;28;20299;-84
2022/03/08 04:46:30;;;;;;;0.50;0.50;;;0.20;99.90;;;;;;5023682;28;20233;-85
2022/03/08 04:48:56;;;;;;;0.40;0.40;;;0.20;99.90;;;;;;5024661;28;20191;-84
2022/03/08 04:51:21;;;;;;;0.43;0.43;;;0.20;99.90;;;;;;5023020;28;20206;-84
2022/03/08 04:53:47;;;;;;;0.20;0.20;;;0.20;99.90;;;;;;5019383;28;20191;-82
2022/03/08 04:56:12;;;;;;;0.30;0.30;;;0.20;99.90;;;;;;5024232;28;20206;-84
2022/03/08 04:58:38;;;;;;;0.40;0.40;;;0.20;99.90;;;;;;5021711;28;20675;-84
2022/03/08 05:01:03;;;;;;;0.27;0.27;;;0.20;99.90;;;;;;5021760;28;20212;-84
2022/03/08 05:03:29;;;;;;;0.57;0.57;;;0.20;99.90;;;;;;5022775;28;20206;-83
2022/03/08 05:05:55;;;;;;;0.70;0.60;;;0.20;99.90;;;;;;5026118;28;20447;-83
2022/03/08 05:08:20;;;;;;;0.60;0.50;;;0.20;99.90;;;;;;5023291;28;20301;-84
2022/03/08 05:10:46;;;;;;;0.40;0.20;;;0.20;99.90;;;;;;5023927;28;20204;-83
2022/03/08 05:13:11;;;;;;;0.43;0.43;;;0.20;99.90;;;;;;5024652;28;20187;-84
2022/03/08 05:15:37;;;;;;;0.57;0.53;;;0.10;99.90;;;;;;5025020;28;20212;-83
2022/03/08 05:18:03;;;;;;;0.17;0.17;;;0.10;99.90;;;;;;5025539;28;20195;-84
2022/03/08 05:20:29;;;;;;;0.27;0.20;;;0.10;99.90;;;;;;5023193;28;20212;-83
2022/03/08 05:22:56;;;;;;;0.30;0.30;;;0.10;99.90;;;;;;5020616;28;20202;-83
2022/03/08 05:25:22;;;;;;;0.43;0.43;;;0.00;99.90;;;;;;5021592;28;20236;-84
2022/03/08 05:27:48;;;;;;;0.50;0.50;;;0.00;99.90;;;;;;5022350;28;20200;-84
2022/03/08 05:30:14;;;;;;;4.27;0.50;;;0.00;99.90;;;;;;5022949;28;20951;-84
2022/03/08 05:32:40;;;;;;;0.33;0.33;;;0.10;99.90;;;;;;5023902;28;20218;-84
2022/03/08 05:35:06;;;;;;;0.60;0.60;;;0.10;99.90;;;;;;5023825;28;20195;-83
2022/03/08 05:37:31;;;;;;;0.27;0.27;;;0.10;99.90;;;;;;5027293;28;20705;-84
2022/03/08 05:39:57;;;;;;;0.20;0.20;;;0.10;99.90;;;;;;5024516;28;20293;-84
2022/03/08 05:42:22;;;;;;;0.67;0.67;;;0.00;99.90;;;;;;5028402;28;20186;-86
2022/03/08 05:44:48;;;;;;;1.10;0.67;;;-0.10;99.90;;;;;;5028583;28;20187;-84
2022/03/08 05:47:13;;;;;;;0.50;0.50;;;0.00;99.90;;;;;;5028029;28;20190;-83
2022/03/08 05:49:39;;;;;;;0.40;0.40;;;0.00;99.90;;;;;;5020882;28;20203;-82
2022/03/08 05:52:05;;;;;;;0.10;0.10;;;0.10;99.90;;;;;;5024387;28;20192;-82
2022/03/08 05:54:30;;;;;;;0.20;0.20;;;0.10;99.90;;;;;;5021378;28;20195;-82
2022/03/08 05:56:56;;;;;;;0.30;0.30;;;0.10;99.90;;;;;;5024927;28;20276;-82
2022/03/08 05:59:21;;;;;;;1.07;0.67;;;0.10;99.90;;;;;;5027645;28;20199;-81
2022/03/08 06:01:47;;;;;;;0.20;0.20;;;0.10;99.90;;;;;;5023687;28;20179;-80
2022/03/08 06:04:13;;;;;;;0.20;0.20;;;0.10;99.90;;;;;;5028105;28;20303;-80
2022/03/08 06:06:38;;;;;;;0.23;0.23;;;0.10;99.90;;;;;;5021092;28;20211;-80
2022/03/08 06:09:04;;;;;;;0.60;0.43;;;0.20;99.90;;;;;;5025834;28;20188;-81
2022/03/08 06:11:29;;;;;;;0.10;0.10;;;0.30;99.90;;;;;;5021061;28;20203;-82
2022/03/08 06:13:55;;;;;;;0.27;0.13;;;0.30;99.90;;;;;;5024244;28;20190;-81
2022/03/08 06:16:20;;;;;;;0.13;0.13;;;0.50;99.90;;;;;;5023632;28;20185;-82
2022/03/08 06:18:46;;;;;;;1.47;0.57;;;0.50;99.90;;;;;;5027434;28;20178;-82
2022/03/08 06:21:11;;;;;;;0.10;0.10;;;0.60;99.90;;;;;;5019851;28;20289;-82
2022/03/08 06:23:37;;;;;;;0.47;0.47;;;0.80;99.90;;;;;;5026175;28;20206;-81
2022/03/08 06:26:02;;;;;;;0.87;0.87;;;0.80;99.90;;;;;;5021481;28;20556;-81
2022/03/08 06:28:28;;;;;;;0.20;0.20;;;0.80;99.90;;;;;;5023021;28;20215;-82
2022/03/08 06:30:54;;;;;;;0.30;0.30;;;1.00;99.90;;;;;;5019667;28;20204;-82
2022/03/08 06:33:19;;;;;;;0.30;0.30;;;1.10;99.90;;;;;;5020306;28;20191;-82
2022/03/08 06:35:45;;;;;;;0.20;0.20;;;1.20;99.90;;;;;;5020776;28;20183;-81
2022/03/08 06:38:11;;;;;;;0.23;0.23;;;1.30;99.90;;;;;;5027309;28;20200;-82
2022/03/08 06:40:36;;;;;;;0.83;0.83;;;1.40;99.90;;;;;;5026109;28;20209;-82
2022/03/08 06:43:02;;;;;;;0.50;0.50;;;1.60;99.90;;;;;;5019208;28;20218;-82
2022/03/08 06:45:27;;;;;;;0.20;0.20;;;1.80;99.90;;;;;;5022341;28;20277;-83
2022/03/08 06:47:53;;;;;;;0.47;0.13;;;2.00;99.90;;;;;;5020277;28;20223;-81
2022/03/08 06:50:18;;;;;;;0.67;0.67;;;2.10;99.90;;;;;;5025470;28;20289;-82
2022/03/08 06:52:44;;;;;;;0.77;0.60;;;2.00;99.90;;;;;;5021415;28;20288;-81
2022/03/08 06:55:10;;;;;;;0.20;0.20;;;2.10;99.90;;;;;;5026341;28;20248;-82
2022/03/08 06:57:37;;;;;;;0.10;0.10;;;2.10;99.90;;;;;;5020349;28;20273;-81
2022/03/08 07:00:04;;;;;;;0.23;0.23;;;2.20;99.90;;;;;;5024255;28;20215;-81
2022/03/08 07:02:30;;;;;;;0.13;0.13;;;2.40;99.90;;;;;;5020456;28;20643;-82
2022/03/08 07:04:55;;;;;;;0.40;0.40;;;2.60;99.90;;;;;;5025077;28;20199;-81
2022/03/08 07:07:21;;;;;;;1.40;0.33;;;2.70;99.90;;;;;;5017272;28;20221;-83
2022/03/08 07:09:47;;;;;;;0.40;0.40;;;2.70;99.90;;;;;;5028588;28;20214;-84
2022/03/08 07:12:14;;;;;;;0.57;0.57;;;2.50;99.90;;;;;;5019809;28;20192;-86
2022/03/08 07:14:39;;;;;;;0.27;0.27;;;2.70;99.90;;;;;;5021708;28;20182;-85
2022/03/08 07:17:05;;;;;;;0.27;0.27;;;2.90;99.90;;;;;;5023589;28;20343;-83
2022/03/08 07:19:30;;;;;;;0.40;0.40;;;3.00;99.90;;;;;;5020610;28;20280;-81
2022/03/08 07:21:56;;;;;;;0.20;0.20;;;3.00;99.90;;;;;;5025094;28;20196;-82
2022/03/08 07:24:22;;;;;;;0.43;0.33;;;3.10;99.90;;;;;;5021598;28;20735;-82
2022/03/08 07:26:47;;;;;;;0.80;0.40;;;3.00;99.90;;;;;;5023970;28;20217;-81
2022/03/08 07:29:13;;;;;;;0.60;0.57;;;3.10;99.90;;;;;;5023905;28;20210;-82
2022/03/08 07:31:39;;;;;;;0.10;0.10;;;3.40;99.90;;;;;;5021396;28;20181;-81
2022/03/08 07:34:05;;;;;;;0.43;0.40;;;3.60;99.90;;;;;;5026421;28;20696;-81
2022/03/08 07:36:31;;;;;;;0.63;0.63;;;3.90;99.90;;;;;;5026577;28;20205;-82
2022/03/08 07:38:57;;;;;;;0.50;0.50;;;4.10;99.90;;;;;;5030742;28;20195;-83
2022/03/08 07:41:22;;;;;;;0.43;0.43;;;3.70;99.90;;;;;;5028939;28;20206;-82
2022/03/08 07:43:48;;;;;;;0.50;0.50;;;3.70;99.90;;;;;;5025086;28;20221;-82
2022/03/08 07:46:15;;;;;;;0.20;0.20;;;3.70;99.90;;;;;;5026273;28;20619;-82
2022/03/08 07:48:41;;;;;;;0.47;0.43;;;3.70;99.90;;;;;;5027541;28;20190;-83
2022/03/08 07:51:07;;;;;;;0.50;0.47;;;3.60;99.90;;;;;;5023509;28;20202;-82
2022/03/08 07:53:34;;;;;;;0.30;0.30;;;3.60;99.90;;;;;;5022351;28;20214;-81
2022/03/08 07:55:59;;;;;;;0.30;0.30;;;3.70;99.90;;;;;;5024128;28;20188;-82
2022/03/08 07:58:26;;;;;;;0.57;0.57;;;4.10;99.90;;;;;;5021435;28;20196;-82
2022/03/08 08:00:51;;;;;;;0.87;0.87;;;4.30;99.90;;;;;;5020913;28;20210;-81
2022/03/08 08:03:17;;;;;;;0.53;0.43;;;4.50;99.90;;;;;;5028279;28;20295;-82
2022/03/08 08:05:42;;;;;;;0.23;0.23;;;4.60;99.90;;;;;;5024919;28;20202;-82
2022/03/08 08:08:08;;;;;;;0.40;0.30;;;4.40;99.90;;;;;;5024718;28;20193;-82
2022/03/08 08:10:34;;;;;;;0.20;0.20;;;4.60;99.90;;;;;;5024273;28;20217;-82
2022/03/08 08:13:00;;;;;;;0.90;0.73;;;5.00;99.90;;;;;;5025421;28;20221;-81
2022/03/08 08:15:26;;;;;;;0.63;0.60;;;5.20;99.90;;;;;;5019829;28;20186;-83
2022/03/08 08:17:52;;;;;;;1.30;0.63;;;5.10;99.90;;;;;;5025152;28;20194;-83
2022/03/08 08:20:17;;;;;;;0.50;0.40;;;5.20;99.90;;;;;;5027213;28;20203;-83
2022/03/08 08:22:43;;;;;;;1.80;0.50;;;5.40;99.90;;;;;;5027115;28;20922;-84
2022/03/08 08:25:10;;;;;;;0.20;0.20;;;5.50;99.90;;;;;;5023699;28;20193;-84
2022/03/08 08:27:37;;;;;;;1.63;0.93;;;5.50;99.90;;;;;;5020433;28;20182;-83
2022/03/08 08:30:07;;;;;;;0.73;0.40;;;5.50;99.90;;;;;;5018372;28;20210;-83
2022/03/08 08:32:32;;;;;;;0.30;0.30;;;5.60;99.90;;;;;;5024480;28;20178;-84
2022/03/08 08:34:58;;;;;;;0.67;0.67;;;5.60;99.90;;;;;;5020215;28;20187;-82
2022/03/08 08:37:24;;;;;;;0.30;0.30;;;5.80;99.90;;;;;;5025411;28;20544;-83
2022/03/08 08:39:49;;;;;;;0.40;0.40;;;5.80;99.90;;;;;;5021541;28;20818;-82
2022/03/08 08:42:15;;;;;;;1.60;1.50;;;5.20;99.90;;;;;;5022632;28;20241;-83
2022/03/08 08:44:40;;;;;;;0.37;0.37;;;5.30;99.90;;;;;;5026335;28;20226;-82
2022/03/08 08:47:06;;;;;;;0.20;0.20;;;5.30;99.90;;;;;;5022840;28;20187;-82
2022/03/08 08:49:32;;;;;;;0.33;0.33;;;5.30;99.90;;;;;;5023587;28;20872;-83
2022/03/08 08:51:57;;;;;;;0.83;0.63;;;5.30;99.90;;;;;;5026806;28;20183;-83
2022/03/08 08:54:23;;;;;;;0.90;0.90;;;5.30;99.90;;;;;;5022007;28;20218;-83
2022/03/08 08:56:49;;;;;;;0.70;0.70;;;5.60;99.90;;;;;;5023330;28;20198;-83
2022/03/08 08:59:15;;;;;;;0.50;0.50;;;5.80;99.90;;;;;;5021864;28;20186;-83
2022/03/08 09:01:40;;;;;;;0.20;0.20;;;5.80;99.90;;;;;;5020014;28;20692;-82
2022/03/08 09:04:06;;;;;;;0.17;0.17;;;5.50;99.90;;;;;;5021103;28;20206;-83
2022/03/08 09:06:31;;;;;;;0.67;0.30;;;5.20;99.90;;;;;;5016519;28;20667;-83
2022/03/08 09:08:57;;;;;;;1.00;0.43;;;5.70;99.90;;;;;;5023089;28;20287;-82
2022/03/08 09:11:23;;;;;;;0.40;0.40;;;5.60;99.90;;;;;;5023778;28;20214;-82
2022/03/08 09:13:49;;;;;;;0.40;0.40;;;5.60;99.90;;;;;;5021185;28;20198;-83
2022/03/08 09:16:15;;;;;;;0.20;0.20;;;5.50;99.90;;;;;;5023684;28;20180;-84
2022/03/08 09:18:41;;;;;;;0.33;0.33;;;5.20;99.90;;;;;;5021996;28;20197;-84
2022/03/08 09:21:07;;;;;;;0.83;0.83;;;5.70;99.90;;;;;;5024324;28;20218;-82
2022/03/08 09:23:33;;;;;;;0.80;0.47;;;5.60;99.90;;;;;;5024321;28;20228;-82
2022/03/08 09:25:59;;;;;;;1.27;0.90;;;5.80;99.90;;;;;;5025065;28;20183;-83
2022/03/08 09:28:24;;;;;;;2.60;1.30;;;6.20;99.90;;;;;;5028688;28;21304;-83
2022/03/08 09:30:50;;;;;;;0.70;0.60;;;6.30;99.90;;;;;;5022978;28;20212;-83
2022/03/08 09:33:15;;;;;;;0.50;0.50;;;6.50;99.90;;;;;;5024853;28;20197;-83
2022/03/08 09:35:41;;;;;;;0.63;0.60;;;6.60;99.90;;;;;;5020264;28;20186;-83
2022/03/08 09:38:06;;;;;;;0.70;0.63;;;6.90;99.90;;;;;;5024415;28;20197;-82
2022/03/08 09:40:32;;;;;;;1.10;1.10;;;6.90;99.90;;;;;;5022553;28;20322;-83
2022/03/08 09:42:58;;;;;;;0.63;0.47;;;7.10;99.90;;;;;;5026190;28;20209;-83
2022/03/08 09:45:24;;;;;;;7.50;1.43;;;7.20;99.90;;;;;;5023369;28;20198;-84
2022/03/08 09:47:50;;;;;;;0.70;0.60;;;7.10;99.90;;;;;;5022054;28;20188;-84
2022/03/08 09:50:16;;;;;;;1.03;0.93;;;5.90;99.90;;;;;;5025377;28;20211;-83
2022/03/08 09:52:42;;;;;;;5.10;1.60;;;6.40;99.90;;;;;;5022950;28;20816;-82
2022/03/08 09:55:14;;;;;;;0.90;0.90;;;6.20;99.90;;;;;;5026323;28;20675;-83
2022/03/08 09:57:40;;;;;;;0.73;0.57;;;6.20;99.90;;;;;;5025212;28;20193;-83
2022/03/08 10:00:08;;;;;;;0.83;0.83;;;6.20;99.90;;;;;;5023833;28;20213;-83
2022/03/08 10:02:45;;;;;;;1.20;0.83;;;5.90;99.90;;;;;;5025993;28;20186;-81
2022/03/08 10:05:10;;;;;;;0.80;0.67;;;6.40;99.90;;;;;;5021612;28;20201;-83
2022/03/08 10:07:36;;;;;;;0.60;0.43;;;6.90;99.90;;;;;;5019429;28;20183;-83
2022/03/08 10:10:02;;;;;;;0.47;0.43;;;7.40;99.90;;;;;;5024349;28;20730;-83
2022/03/08 10:12:28;;;;;;;1.17;0.90;;;7.30;99.90;;;;;;5025379;28;20179;-83
2022/03/08 10:14:53;;;;;;;0.70;0.70;;;6.80;99.90;;;;;;5021020;28;20664;-82
2022/03/08 10:17:38;;;;;;;0.30;0.30;;;6.80;99.90;;;;;;5023959;28;21027;-83
2022/03/08 10:20:10;;;;;;;0.70;0.43;;;7.30;99.90;;;;;;5025385;28;20217;-83
2022/03/08 10:22:38;;;;;;;0.70;0.70;;;7.10;99.90;;;;;;5024610;28;20194;-83
2022/03/08 10:25:25;;;;;;;0.83;0.60;;;7.40;99.90;;;;;;5021809;28;20238;-83
2022/03/08 10:27:57;;;;;;;2.43;0.63;;;7.40;99.90;;;;;;5017806;28;20190;-83
2022/03/08 10:30:28;;;;;;;0.60;0.40;;;7.40;99.90;;;;;;5020581;28;20333;-84
2022/03/08 10:32:56;;;;;;;2.07;0.67;;;6.80;99.90;;;;;;5018156;28;20270;-84
2022/03/08 10:35:29;;;;;;;0.43;0.43;;;7.30;99.90;;;;;;5020933;28;20185;-84
2022/03/08 10:38:03;;;;;;;0.20;0.20;;;7.40;99.90;;;;;;5023016;28;20185;-85
2022/03/08 10:40:35;;;;;;;0.43;0.43;;;7.30;99.90;;;;;;5020785;28;20226;-85
2022/03/08 10:43:13;;;;;;;0.67;0.67;;;7.20;99.90;;;;;;5024509;28;20292;-85
2022/03/08 10:45:48;;;;;;;0.60;0.60;;;7.40;99.90;;;;;;5024193;28;20189;-84
2022/03/08 10:48:14;;;;;;;0.83;0.83;;;7.50;99.90;;;;;;5026219;28;20214;-84
2022/03/08 10:50:42;;;;;;;0.23;0.23;;;7.90;99.90;;;;;;5024958;28;20203;-85
2022/03/08 10:53:11;;;;;;;0.57;0.57;;;8.40;99.90;;;;;;5022282;28;20188;-85
2022/03/08 10:55:39;;;;;;;0.50;0.50;;;8.30;99.90;;;;;;5023749;28;20217;-84
2022/03/08 10:58:07;;;;;;;0.57;0.57;;;8.20;99.90;;;;;;5018054;28;20282;-84
2022/03/08 11:00:40;;;;;;;0.93;0.50;;;8.50;99.90;;;;;;5022041;28;20788;-84
2022/03/08 11:03:18;;;;;;;1.00;1.00;;;8.90;99.90;;;;;;5022889;28;20211;-85
2022/03/08 11:05:46;;;;;;;0.50;0.50;;;8.90;99.90;;;;;;5025784;28;20230;-85
2022/03/08 11:08:13;;;;;;;1.13;0.73;;;9.00;99.90;;;;;;5019569;28;20673;-85
2022/03/08 11:10:39;;;;;;;1.13;0.50;;;8.90;99.90;;;;;;5023411;28;20615;-85
2022/03/08 11:13:07;;;;;;;0.73;0.57;;;8.90;99.90;;;;;;5024187;28;20197;-83
2022/03/08 11:15:36;;;;;;;0.20;0.20;;;8.60;99.90;;;;;;5026479;28;20185;-82
2022/03/08 11:18:04;;;;;;;0.80;0.80;;;8.90;99.90;;;;;;5022529;28;20956;-83
2022/03/08 11:20:30;;;;;;;0.80;0.80;;;9.10;99.90;;;;;;5022891;28;20676;-82
2022/03/08 11:22:58;;;;;;;1.47;1.47;;;9.20;99.90;;;;;;5022798;28;20673;-81
2022/03/08 11:25:29;;;;;;;0.73;0.57;;;8.70;99.90;;;;;;5023653;28;20189;-83
2022/03/08 11:27:55;;;;;;;0.10;0.10;;;8.40;99.90;;;;;;5018468;28;20201;-82
2022/03/08 11:30:26;;;;;;;0.20;0.20;;;9.00;99.90;;;;;;5029025;28;20201;-82
2022/03/08 11:33:17;;;;;;;0.40;0.40;;;9.20;99.90;;;;;;5019411;28;20182;-84
2022/03/08 11:36:02;;;;;;;0.70;0.67;;;9.20;99.90;;;;;;5022975;28;20197;-83
2022/03/08 11:38:27;;;;;;;0.30;0.30;;;9.40;99.90;;;;;;5023041;28;20272;-84
2022/03/08 11:40:58;;;;;;;0.10;0.10;;;9.60;99.90;;;;;;5020473;28;20303;-83
2022/03/08 11:43:41;;;;;;;0.27;0.27;;;10.00;99.90;;;;;;5024809;28;20218;-86
2022/03/08 11:46:16;;;;;;;0.70;0.70;;;9.30;99.90;;;;;;5020914;28;20216;-85
2022/03/08 11:48:58;;;;;;;0.57;0.50;;;9.00;99.90;;;;;;5022697;28;20185;-86
2022/03/08 11:51:25;;;;;;;0.37;0.37;;;9.40;99.90;;;;;;5024735;28;20388;-82
2022/03/08 11:54:06;;;;;;;0.23;0.23;;;9.60;99.90;;;;;;5024363;28;20192;-83
2022/03/08 11:56:46;;;;;;;0.40;0.40;;;9.80;99.90;;;;;;5021869;28;20190;-83
2022/03/08 11:59:12;;;;;;;0.60;0.30;;;9.90;99.90;;;;;;5025299;28;20209;-82
2022/03/08 12:01:38;;;;;;;0.30;0.30;;;10.00;99.90;;;;;;5024443;28;20188;-82
2022/03/08 12:04:12;;;;;;;0.77;0.70;;;9.40;99.90;;;;;;5024700;28;20259;-83
2022/03/08 12:06:39;;;;;;;0.60;0.37;;;9.90;99.90;;;;;;5025993;28;20204;-83
2022/03/08 12:09:10;;;;;;;0.17;0.10;;;9.90;99.90;;;;;;5019651;28;20305;-82
2022/03/08 12:11:40;;;;;;;0.77;0.60;;;10.10;99.90;;;;;;5021814;28;20209;-82
2022/03/08 12:14:27;;;;;;;0.67;0.57;;;10.40;99.90;;;;;;5026328;28;20193;-83
2022/03/08 12:17:18;;;;;;;0.50;0.50;;;9.90;99.90;;;;;;5028305;28;20181;-82
2022/03/08 12:19:45;;;;;;;1.40;0.40;;;10.00;99.90;;;;;;5030815;28;20209;-83
2022/03/08 12:22:16;;;;;;;0.33;0.33;;;10.20;99.90;;;;;;5029297;28;20182;-83
2022/03/08 12:24:54;;;;;;;0.67;0.67;;;10.20;99.90;;;;;;5030440;28;20202;-83
2022/03/08 12:27:21;;;;;;;0.27;0.27;;;10.20;99.90;;;;;;5029088;28;20199;-83
2022/03/08 12:29:51;;;;;;;0.50;0.50;;;10.30;99.90;;;;;;5026092;28;21084;-83
2022/03/08 12:32:41;;;;;;;0.30;0.30;;;10.30;99.90;;;;;;5027097;28;20193;-83
2022/03/08 12:35:20;;;;;;;0.67;0.40;;;10.10;99.90;;;;;;5023371;28;20190;-82
2022/03/08 12:37:55;;;;;;;1.57;0.50;;;10.30;99.90;;;;;;5026047;28;20206;-82
2022/03/08 12:40:36;;;;;;;0.70;0.70;;;9.80;99.90;;;;;;5027390;28;20258;-84
2022/03/08 12:43:11;;;;;;;0.27;0.23;;;9.50;99.90;;;;;;5018435;28;20205;-83
2022/03/08 12:45:42;;;;;;;0.43;0.43;;;9.60;99.90;;;;;;5025030;28;20186;-82
2022/03/08 12:48:13;;;;;;;1.23;0.30;;;9.70;99.90;;;;;;5025738;28;20182;-83
2022/03/08 12:50:48;;;;;;;0.30;0.30;;;10.00;99.90;;;;;;5029862;28;20225;-83
2022/03/08 12:53:25;;;;;;;0.23;0.20;;;9.60;99.90;;;;;;5029801;28;20780;-83
2022/03/08 12:56:10;;;;;;;0.43;0.43;;;10.10;99.90;;;;;;5027590;28;20212;-82